Time;durP1;ratioP1;P1;durP2;ratioP2;P2;SDS_P1;SDS_P2;PMS_P1;PMS_P2;Temp;Humidity;BMP_temperature;BMP_pressure;BME280_temperature;BME280_humidity;BME280_pressure;Samples;Min_cycle;Max_cycle;Signal;HPM_P1;HPM_P2
2023/06/24 00:00:22;;;;;;;4.87;4.40;;;25.10;91.90;;;;;;5057868;28;20931;-51
2023/06/24 00:02:51;;;;;;;4.93;4.47;;;25.00;91.90;;;;;;5059747;28;21059;-55
2023/06/24 00:05:17;;;;;;;5.57;4.43;;;25.00;91.90;;;;;;5061419;28;20488;-55
2023/06/24 00:07:44;;;;;;;5.50;5.00;;;25.00;92.00;;;;;;5059861;28;20470;-51
2023/06/24 00:10:12;;;;;;;4.70;4.30;;;24.90;91.90;;;;;;5060296;28;20460;-53
2023/06/24 00:12:41;;;;;;;4.10;3.70;;;24.90;92.00;;;;;;5060986;28;20833;-54
2023/06/24 00:15:09;;;;;;;7.17;3.93;;;25.00;92.00;;;;;;5061719;28;20464;-55
2023/06/24 00:17:35;;;;;;;4.97;3.67;;;25.00;92.00;;;;;;5059179;28;20590;-55
2023/06/24 00:20:07;;;;;;;4.73;3.77;;;25.00;92.00;;;;;;5061459;28;20457;-54
2023/06/24 00:22:34;;;;;;;4.23;3.93;;;25.00;92.00;;;;;;5061424;28;20530;-53
2023/06/24 00:25:00;;;;;;;3.77;3.47;;;25.00;92.10;;;;;;5062212;28;20499;-52
2023/06/24 00:27:27;;;;;;;4.20;3.80;;;25.00;92.20;;;;;;5062764;28;20465;-50
2023/06/24 00:29:55;;;;;;;4.23;3.70;;;25.00;92.30;;;;;;5061507;28;20460;-51
2023/06/24 00:32:22;;;;;;;6.13;4.13;;;25.00;92.40;;;;;;5059417;28;20457;-53
2023/06/24 00:34:50;;;;;;;4.67;4.37;;;25.00;92.40;;;;;;5063182;28;20461;-55
2023/06/24 00:37:16;;;;;;;5.00;4.00;;;25.00;92.40;;;;;;5061045;28;20467;-53
2023/06/24 00:39:43;;;;;;;4.13;3.83;;;25.00;92.50;;;;;;5067190;28;20976;-53
2023/06/24 00:42:10;;;;;;;5.07;4.57;;;25.00;92.50;;;;;;5065800;28;20453;-54
2023/06/24 00:44:39;;;;;;;5.97;4.00;;;25.00;92.50;;;;;;5062639;28;20507;-51
2023/06/24 00:47:08;;;;;;;4.43;4.03;;;25.00;92.50;;;;;;5067911;28;20486;-51
2023/06/24 00:49:35;;;;;;;4.37;4.00;;;25.00;92.50;;;;;;5058123;28;21255;-55
2023/06/24 00:52:02;;;;;;;4.00;3.70;;;25.00;92.50;;;;;;5067304;28;20464;-54
2023/06/24 00:54:30;;;;;;;4.30;3.90;;;24.90;92.50;;;;;;5066302;28;20983;-49
2023/06/24 00:57:00;;;;;;;4.70;3.30;;;25.00;92.50;;;;;;5064878;28;20461;-51
2023/06/24 00:59:28;;;;;;;5.37;4.07;;;25.00;92.50;;;;;;5063577;28;20461;-50
2023/06/24 01:01:55;;;;;;;4.80;3.87;;;25.00;92.60;;;;;;5062300;28;20484;-54
2023/06/24 01:04:24;;;;;;;4.00;3.70;;;25.00;92.60;;;;;;5071570;28;20491;-53
2023/06/24 01:06:51;;;;;;;6.50;4.70;;;25.00;92.60;;;;;;5064517;28;20644;-52
2023/06/24 01:09:18;;;;;;;4.30;4.00;;;24.90;92.50;;;;;;5067573;28;20456;-53
2023/06/24 01:11:45;;;;;;;7.20;4.07;;;25.00;92.60;;;;;;5067597;28;20550;-53
2023/06/24 01:14:11;;;;;;;4.77;4.20;;;25.00;92.60;;;;;;5064921;28;21079;-53
2023/06/24 01:16:45;;;;;;;4.67;4.27;;;24.90;92.60;;;;;;5065615;28;21391;-53
2023/06/24 01:19:45;;;;;;;4.40;4.00;;;25.00;92.60;;;;;;5063367;28;20464;-51
2023/06/24 01:22:24;;;;;;;4.30;3.90;;;24.90;92.60;;;;;;5062065;28;20461;-50
2023/06/24 01:25:08;;;;;;;4.63;4.23;;;24.90;92.60;;;;;;5060212;28;20496;-55
2023/06/24 01:28:09;;;;;;;4.70;4.27;;;24.90;92.60;;;;;;5058169;28;21146;-54
2023/06/24 01:31:06;;;;;;;4.50;4.20;;;24.90;92.70;;;;;;5056933;28;20476;-53
2023/06/24 01:33:40;;;;;;;6.80;3.87;;;24.90;92.60;;;;;;5061578;28;20859;-50
2023/06/24 01:36:11;;;;;;;4.77;4.37;;;24.90;92.70;;;;;;5061228;28;21031;-50
2023/06/24 01:38:44;;;;;;;4.83;4.43;;;24.90;92.70;;;;;;5064523;28;20460;-51
2023/06/24 01:41:14;;;;;;;4.40;4.00;;;24.90;92.70;;;;;;5065555;28;21107;-51
2023/06/24 01:43:43;;;;;;;4.13;3.83;;;24.90;92.70;;;;;;5061335;28;20546;-52
2023/06/24 01:46:12;;;;;;;4.60;4.23;;;24.90;92.70;;;;;;5065207;28;20461;-53
2023/06/24 01:48:45;;;;;;;4.80;4.47;;;24.90;92.70;;;;;;5062731;28;20537;-53
2023/06/24 01:51:15;;;;;;;4.80;4.40;;;24.90;92.80;;;;;;5064090;28;20778;-52
2023/06/24 01:53:46;;;;;;;3.93;3.53;;;24.90;92.70;;;;;;5063708;28;20948;-52
2023/06/24 01:56:17;;;;;;;4.57;4.17;;;24.90;92.70;;;;;;5064266;28;20466;-51
2023/06/24 01:58:46;;;;;;;4.43;4.03;;;24.90;92.80;;;;;;5061901;28;20489;-52
2023/06/24 02:01:14;;;;;;;4.40;4.00;;;24.90;92.80;;;;;;5060409;28;20467;-54
2023/06/24 02:03:43;;;;;;;5.33;4.90;;;24.90;92.80;;;;;;5059521;28;20465;-55
2023/06/24 02:06:10;;;;;;;3.63;3.33;;;24.90;92.80;;;;;;5062236;28;20871;-54
2023/06/24 02:08:39;;;;;;;4.20;3.90;;;24.80;92.70;;;;;;5062623;28;20476;-52
2023/06/24 02:11:07;;;;;;;5.00;4.50;;;24.90;92.80;;;;;;5061421;28;21023;-54
2023/06/24 02:13:36;;;;;;;3.90;3.60;;;24.90;92.80;;;;;;5059115;28;21112;-52
2023/06/24 02:16:05;;;;;;;4.20;3.80;;;24.90;92.80;;;;;;5058683;28;20944;-49
2023/06/24 02:18:32;;;;;;;4.87;4.47;;;24.90;92.80;;;;;;5056448;28;20511;-53
2023/06/24 02:21:01;;;;;;;4.93;4.43;;;24.90;92.90;;;;;;5056106;28;20967;-51
2023/06/24 02:23:30;;;;;;;4.20;3.90;;;24.90;92.90;;;;;;5058074;28;20477;-51
2023/06/24 02:25:57;;;;;;;4.77;4.47;;;24.90;92.90;;;;;;5057235;28;20481;-51
2023/06/24 02:28:25;;;;;;;4.50;4.10;;;24.90;92.90;;;;;;5059423;28;20455;-53
2023/06/24 02:30:52;;;;;;;4.47;4.03;;;24.90;92.90;;;;;;5056747;28;20662;-53
2023/06/24 02:33:19;;;;;;;4.80;4.40;;;24.90;92.90;;;;;;5060991;28;20556;-51
2023/06/24 02:35:46;;;;;;;4.40;4.03;;;24.90;92.90;;;;;;5066138;28;20469;-51
2023/06/24 02:38:14;;;;;;;4.87;4.37;;;24.90;92.90;;;;;;5066388;28;20465;-51
2023/06/24 02:40:43;;;;;;;4.37;3.97;;;24.80;92.90;;;;;;5063474;28;20544;-51
2023/06/24 02:43:10;;;;;;;4.53;4.17;;;24.90;92.90;;;;;;5061960;28;20456;-52
2023/06/24 02:45:37;;;;;;;4.40;4.00;;;24.90;92.90;;;;;;5057415;28;20480;-53
2023/06/24 02:48:05;;;;;;;3.93;3.63;;;24.80;92.90;;;;;;5061472;28;20553;-51
2023/06/24 02:50:32;;;;;;;4.40;4.10;;;24.80;92.90;;;;;;5058928;28;20465;-54
2023/06/24 02:52:59;;;;;;;4.40;4.00;;;24.80;93.30;;;;;;5070767;28;20789;-52
2023/06/24 02:55:28;;;;;;;4.13;3.50;;;24.80;92.90;;;;;;5061435;28;20464;-54
2023/06/24 02:57:57;;;;;;;4.17;3.87;;;24.80;92.90;;;;;;5059378;28;20463;-55
2023/06/24 03:00:24;;;;;;;4.30;3.90;;;24.80;92.90;;;;;;5054941;28;20993;-53
2023/06/24 03:02:51;;;;;;;4.80;4.40;;;24.80;92.90;;;;;;5056309;28;20465;-52
2023/06/24 03:05:19;;;;;;;5.00;4.50;;;24.80;92.90;;;;;;5052956;28;20492;-55
2023/06/24 03:07:47;;;;;;;5.03;4.53;;;24.80;93.00;;;;;;5050750;28;20460;-56
2023/06/24 03:10:15;;;;;;;7.20;4.83;;;24.80;93.00;;;;;;5054329;28;20801;-54
2023/06/24 03:12:43;;;;;;;5.10;4.70;;;24.80;93.00;;;;;;5053012;28;20473;-55
2023/06/24 03:15:10;;;;;;;4.20;3.90;;;24.80;93.00;;;;;;5058204;28;20918;-57
2023/06/24 03:17:37;;;;;;;5.30;4.90;;;24.80;93.00;;;;;;5054772;28;20468;-53
2023/06/24 03:20:06;;;;;;;4.57;3.80;;;24.80;93.00;;;;;;5055242;28;20452;-53
2023/06/24 03:22:33;;;;;;;3.97;3.67;;;24.80;93.00;;;;;;5054189;28;20634;-51
2023/06/24 03:25:00;;;;;;;4.20;3.90;;;24.80;93.00;;;;;;5052955;28;20485;-51
2023/06/24 03:27:27;;;;;;;3.60;3.40;;;24.80;93.00;;;;;;5053478;28;20461;-55
2023/06/24 03:29:55;;;;;;;5.13;4.10;;;24.80;93.00;;;;;;5053709;28;20472;-53
2023/06/24 03:32:21;;;;;;;4.80;4.40;;;24.80;93.00;;;;;;5051774;28;20468;-53
2023/06/24 03:34:48;;;;;;;4.63;4.27;;;24.80;93.00;;;;;;5055343;28;21055;-55
2023/06/24 03:37:15;;;;;;;4.03;3.70;;;24.80;93.00;;;;;;5058556;28;20464;-54
2023/06/24 03:39:42;;;;;;;5.17;4.77;;;24.80;93.10;;;;;;5051813;28;20485;-55
2023/06/24 03:42:09;;;;;;;4.37;3.97;;;24.80;93.10;;;;;;5061608;28;20468;-53
2023/06/24 03:44:35;;;;;;;4.43;4.07;;;24.80;93.10;;;;;;5064020;28;20480;-54
2023/06/24 03:47:04;;;;;;;4.70;4.30;;;24.80;93.10;;;;;;5066670;28;20457;-52
2023/06/24 03:49:31;;;;;;;4.20;3.80;;;24.80;93.10;;;;;;5066682;28;20846;-53
2023/06/24 03:51:57;;;;;;;4.47;4.17;;;24.80;93.10;;;;;;5065867;28;20832;-53
2023/06/24 03:54:24;;;;;;;3.77;3.47;;;24.80;93.10;;;;;;5066638;28;21243;-51
2023/06/24 03:56:51;;;;;;;4.50;4.10;;;24.80;93.10;;;;;;5065525;28;20472;-53
2023/06/24 03:59:17;;;;;;;4.83;4.43;;;24.80;93.10;;;;;;5061474;28;20940;-54
2023/06/24 04:01:44;;;;;;;4.10;3.70;;;24.80;93.10;;;;;;5064122;28;21292;-50
2023/06/24 04:04:12;;;;;;;4.47;4.17;;;24.80;93.10;;;;;;5066496;28;21003;-55
2023/06/24 04:06:38;;;;;;;4.30;4.00;;;24.80;93.20;;;;;;5065310;28;20495;-53
2023/06/24 04:09:06;;;;;;;4.50;4.10;;;24.80;93.10;;;;;;5065958;28;20444;-56
2023/06/24 04:11:33;;;;;;;4.23;3.93;;;24.80;93.20;;;;;;5061721;28;20980;-55
2023/06/24 04:13:59;;;;;;;4.30;4.00;;;24.80;93.10;;;;;;5050265;28;20459;-54
2023/06/24 04:16:26;;;;;;;3.70;3.40;;;24.80;93.20;;;;;;5055396;28;20461;-52
2023/06/24 04:18:53;;;;;;;4.40;4.10;;;24.70;93.10;;;;;;5054033;28;20457;-51
2023/06/24 04:21:21;;;;;;;4.53;4.20;;;24.80;93.20;;;;;;5055421;28;20457;-53
2023/06/24 04:23:47;;;;;;;4.43;4.13;;;24.80;93.20;;;;;;5054719;28;20488;-53
2023/06/24 04:26:14;;;;;;;4.27;3.87;;;24.70;93.10;;;;;;5064796;28;22607;-52
2023/06/24 04:28:41;;;;;;;3.60;3.30;;;24.80;93.20;;;;;;5059758;28;20468;-50
2023/06/24 04:31:07;;;;;;;5.07;4.67;;;24.80;93.20;;;;;;5062475;28;20456;-55
2023/06/24 04:33:34;;;;;;;3.90;3.60;;;24.80;93.20;;;;;;5061241;28;20482;-54
2023/06/24 04:36:01;;;;;;;4.43;4.13;;;24.80;93.20;;;;;;5076569;28;20551;-52
2023/06/24 04:38:29;;;;;;;4.20;3.90;;;24.70;93.10;;;;;;5072435;28;20471;-52
2023/06/24 04:40:57;;;;;;;5.20;4.50;;;24.70;93.10;;;;;;5067941;28;20995;-51
2023/06/24 04:43:23;;;;;;;3.80;3.50;;;24.70;93.10;;;;;;5061195;28;20459;-52
2023/06/24 04:45:54;;;;;;;4.40;4.10;;;24.80;93.20;;;;;;5059356;28;20486;-50
2023/06/24 04:48:21;;;;;;;4.20;3.90;;;24.80;93.20;;;;;;5063800;28;20918;-53
2023/06/24 04:50:48;;;;;;;3.80;3.60;;;24.70;93.20;;;;;;5061095;28;20456;-53
2023/06/24 04:53:15;;;;;;;4.17;3.87;;;24.70;93.20;;;;;;5066522;28;20474;-50
2023/06/24 04:55:43;;;;;;;3.90;3.60;;;24.70;93.20;;;;;;5060753;28;20480;-54
2023/06/24 04:58:10;;;;;;;4.77;4.37;;;24.70;93.20;;;;;;5063835;28;20617;-54
2023/06/24 05:00:37;;;;;;;5.27;4.80;;;24.70;93.20;;;;;;5062759;28;20464;-50
2023/06/24 05:03:03;;;;;;;5.00;4.60;;;24.70;93.20;;;;;;5057966;28;20464;-53
2023/06/24 05:05:30;;;;;;;4.40;4.10;;;24.70;93.20;;;;;;5058950;28;20475;-54
2023/06/24 05:07:57;;;;;;;4.43;4.13;;;24.70;93.20;;;;;;5057315;28;21067;-53
2023/06/24 05:10:23;;;;;;;4.13;3.83;;;24.70;93.20;;;;;;5058507;28;20468;-52
2023/06/24 05:12:51;;;;;;;4.80;4.40;;;24.70;93.20;;;;;;5065575;28;20537;-51
2023/06/24 05:15:18;;;;;;;4.53;4.13;;;24.70;93.20;;;;;;5064046;28;20467;-54
2023/06/24 05:17:45;;;;;;;4.30;4.00;;;24.70;93.30;;;;;;5059159;28;20902;-51
2023/06/24 05:20:12;;;;;;;4.40;4.10;;;24.70;93.30;;;;;;5062794;28;20464;-51
2023/06/24 05:22:39;;;;;;;4.70;4.40;;;24.70;93.30;;;;;;5060448;28;20470;-52
2023/06/24 05:25:06;;;;;;;5.17;4.77;;;24.70;93.30;;;;;;5060786;28;20480;-54
2023/06/24 05:27:33;;;;;;;5.10;4.70;;;24.70;93.30;;;;;;5059979;28;20461;-54
2023/06/24 05:30:01;;;;;;;4.50;4.10;;;24.70;93.30;;;;;;5058149;28;20452;-54
2023/06/24 05:32:28;;;;;;;4.03;3.73;;;24.70;93.30;;;;;;5058582;28;20460;-52
2023/06/24 05:34:54;;;;;;;4.33;3.93;;;24.70;93.30;;;;;;5060678;28;20905;-50
2023/06/24 05:37:21;;;;;;;4.93;4.53;;;24.70;93.30;;;;;;5060884;28;20464;-50
2023/06/24 05:39:48;;;;;;;5.00;4.60;;;24.70;93.30;;;;;;5060022;28;21200;-52
2023/06/24 05:42:15;;;;;;;4.90;4.50;;;24.70;93.30;;;;;;5063745;28;20453;-53
2023/06/24 05:44:41;;;;;;;5.30;4.80;;;24.70;93.30;;;;;;5061402;28;20510;-55
2023/06/24 05:47:09;;;;;;;4.73;4.33;;;24.60;93.30;;;;;;5055596;28;20480;-53
2023/06/24 05:49:36;;;;;;;4.70;4.33;;;24.60;93.30;;;;;;5057156;28;20452;-52
2023/06/24 05:52:03;;;;;;;4.97;4.57;;;24.70;93.40;;;;;;5057050;28;20457;-52
2023/06/24 05:54:30;;;;;;;5.77;5.17;;;24.60;93.30;;;;;;5057286;28;20976;-53
2023/06/24 05:56:57;;;;;;;4.37;4.07;;;24.60;93.40;;;;;;5055878;28;20465;-51
2023/06/24 05:59:23;;;;;;;5.63;5.13;;;24.60;93.40;;;;;;5050516;28;20468;-52
2023/06/24 06:01:50;;;;;;;4.60;4.20;;;24.70;93.40;;;;;;5062110;28;20456;-52
2023/06/24 06:04:18;;;;;;;5.27;4.77;;;24.60;93.40;;;;;;5065723;28;20602;-52
2023/06/24 06:06:45;;;;;;;5.17;4.73;;;24.70;93.40;;;;;;5055140;28;20673;-53
2023/06/24 06:09:11;;;;;;;4.83;4.33;;;24.70;93.40;;;;;;5057026;28;20522;-53
2023/06/24 06:11:38;;;;;;;4.57;3.63;;;24.60;93.30;;;;;;5057816;28;20467;-51
2023/06/24 06:14:05;;;;;;;5.17;4.77;;;24.70;93.40;;;;;;5057277;28;20456;-55
2023/06/24 06:16:32;;;;;;;4.77;4.37;;;24.60;93.40;;;;;;5055609;28;20513;-51
2023/06/24 06:18:58;;;;;;;5.23;4.83;;;24.60;93.40;;;;;;5056810;28;20467;-54
2023/06/24 06:21:26;;;;;;;6.97;4.37;;;24.60;93.40;;;;;;5069267;28;20467;-54
2023/06/24 06:23:53;;;;;;;5.93;5.43;;;24.60;93.40;;;;;;5070513;28;20477;-55
2023/06/24 06:26:20;;;;;;;6.90;5.50;;;24.60;93.40;;;;;;5067948;28;20468;-53
2023/06/24 06:28:47;;;;;;;4.90;4.43;;;24.60;93.40;;;;;;5065199;28;20464;-53
2023/06/24 06:31:14;;;;;;;5.20;4.17;;;24.60;93.40;;;;;;5070119;28;20542;-53
2023/06/24 06:33:41;;;;;;;4.80;4.40;;;24.60;93.40;;;;;;5066189;28;20459;-51
2023/06/24 06:36:08;;;;;;;4.37;3.97;;;24.60;93.40;;;;;;5070957;28;20456;-51
2023/06/24 06:38:36;;;;;;;5.00;4.30;;;24.60;93.40;;;;;;5069960;28;20564;-52
2023/06/24 06:41:03;;;;;;;4.70;4.30;;;24.60;93.40;;;;;;5071072;28;20451;-50
2023/06/24 06:43:29;;;;;;;4.90;4.50;;;24.60;93.40;;;;;;5066051;28;21024;-52
2023/06/24 06:45:56;;;;;;;5.43;4.93;;;24.60;93.50;;;;;;5063146;28;20485;-54
2023/06/24 06:48:23;;;;;;;4.60;4.23;;;24.60;93.50;;;;;;5061241;28;20972;-53
2023/06/24 06:50:52;;;;;;;5.43;5.03;;;24.60;93.50;;;;;;5069637;28;20459;-53
2023/06/24 06:53:19;;;;;;;4.53;4.13;;;24.60;93.50;;;;;;5067618;28;20457;-53
2023/06/24 06:55:47;;;;;;;4.73;4.33;;;24.60;93.60;;;;;;5068579;28;20858;-54
2023/06/24 06:58:13;;;;;;;5.10;4.60;;;24.70;93.60;;;;;;5069736;28;20844;-51
2023/06/24 07:00:40;;;;;;;4.93;4.53;;;24.60;93.60;;;;;;5066153;28;20972;-54
2023/06/24 07:03:07;;;;;;;4.40;4.07;;;24.60;93.70;;;;;;5069091;28;21009;-54
2023/06/24 07:05:34;;;;;;;4.23;3.73;;;24.60;93.70;;;;;;5062879;28;20848;-52
2023/06/24 07:08:00;;;;;;;4.90;4.50;;;24.70;93.70;;;;;;5068645;28;20534;-54
2023/06/24 07:10:27;;;;;;;4.00;3.60;;;24.60;93.70;;;;;;5071056;28;20472;-53
2023/06/24 07:12:57;;;;;;;5.70;4.53;;;24.70;93.80;;;;;;5068139;28;20840;-54
2023/06/24 07:15:25;;;;;;;4.13;3.73;;;24.60;93.90;;;;;;5064097;28;20453;-54
2023/06/24 07:17:52;;;;;;;8.80;4.50;;;24.60;93.90;;;;;;5065396;28;20456;-54
2023/06/24 07:20:19;;;;;;;4.60;4.03;;;24.70;94.00;;;;;;5066905;28;20461;-55
2023/06/24 07:22:45;;;;;;;5.30;4.00;;;24.60;94.00;;;;;;5070223;28;20494;-55
2023/06/24 07:25:12;;;;;;;6.53;4.53;;;24.60;94.10;;;;;;5067634;28;20685;-54
2023/06/24 07:27:39;;;;;;;4.87;4.47;;;24.60;94.20;;;;;;5062864;28;20488;-55
2023/06/24 07:30:09;;;;;;;5.23;4.83;;;24.70;94.30;;;;;;5064519;28;20461;-52
2023/06/24 07:32:35;;;;;;;5.30;4.50;;;24.60;94.20;;;;;;5067820;28;20572;-54
2023/06/24 07:35:02;;;;;;;4.93;4.53;;;24.70;94.30;;;;;;5064987;28;20463;-53
2023/06/24 07:37:29;;;;;;;4.50;4.10;;;24.60;94.20;;;;;;5064687;28;20464;-54
2023/06/24 07:39:55;;;;;;;4.67;4.27;;;24.60;94.30;;;;;;5060994;28;20555;-55
2023/06/24 07:42:22;;;;;;;4.63;4.23;;;24.70;94.30;;;;;;5064984;28;20457;-53
2023/06/24 07:44:49;;;;;;;5.33;4.47;;;24.60;94.30;;;;;;5063155;28;20469;-51
2023/06/24 07:47:19;;;;;;;5.40;4.20;;;24.60;94.30;;;;;;5063071;28;20482;-55
2023/06/24 07:49:45;;;;;;;4.23;3.87;;;24.70;94.50;;;;;;5061014;28;20469;-53
2023/06/24 07:52:12;;;;;;;5.90;4.70;;;24.60;94.30;;;;;;5063262;28;20923;-54
2023/06/24 07:54:39;;;;;;;5.17;4.77;;;24.70;94.40;;;;;;5063452;28;20529;-55
2023/06/24 07:57:05;;;;;;;5.27;4.77;;;24.60;94.30;;;;;;5063472;28;20449;-54
2023/06/24 07:59:32;;;;;;;5.57;5.10;;;24.60;94.10;;;;;;5054638;28;20464;-56
2023/06/24 08:01:59;;;;;;;7.10;5.67;;;24.70;94.10;;;;;;5058538;28;20513;-54
2023/06/24 08:04:27;;;;;;;5.93;5.13;;;24.60;93.90;;;;;;5065967;28;20472;-53
2023/06/24 08:06:54;;;;;;;5.40;4.90;;;24.60;93.60;;;;;;5065079;28;20476;-53
2023/06/24 08:09:20;;;;;;;5.00;4.60;;;24.60;93.50;;;;;;5064000;28;20442;-56
2023/06/24 08:11:47;;;;;;;8.47;5.37;;;24.60;93.50;;;;;;5063141;28;20460;-54
2023/06/24 08:14:14;;;;;;;6.27;5.67;;;24.60;93.50;;;;;;5060149;28;20468;-54
2023/06/24 08:16:40;;;;;;;7.90;5.10;;;24.60;93.50;;;;;;5061563;28;20841;-51
2023/06/24 08:19:07;;;;;;;5.77;5.07;;;24.60;93.50;;;;;;5060448;28;20464;-56
2023/06/24 08:21:37;;;;;;;7.50;6.07;;;24.60;93.40;;;;;;5061431;28;20464;-55
2023/06/24 08:24:04;;;;;;;6.90;5.53;;;24.60;93.40;;;;;;5061233;28;21062;-57
2023/06/24 08:26:31;;;;;;;7.87;7.00;;;24.60;93.20;;;;;;5060009;28;20496;-56
2023/06/24 08:28:59;;;;;;;9.87;6.27;;;24.60;93.20;;;;;;5058990;28;21127;-56
2023/06/24 08:31:25;;;;;;;7.20;5.50;;;24.60;93.20;;;;;;5066109;28;20975;-54
2023/06/24 08:33:54;;;;;;;7.70;6.50;;;24.60;93.10;;;;;;5065698;28;20954;-56
2023/06/24 08:36:22;;;;;;;6.97;5.17;;;24.60;93.20;;;;;;5068104;28;20548;-55
2023/06/24 08:38:50;;;;;;;6.87;6.27;;;24.60;93.20;;;;;;5068257;28;20470;-57
2023/06/24 08:41:16;;;;;;;7.23;5.63;;;24.60;93.20;;;;;;5064370;28;20457;-55
2023/06/24 08:43:43;;;;;;;6.30;5.60;;;24.60;93.30;;;;;;5065627;28;20464;-57
2023/06/24 08:46:10;;;;;;;9.33;7.07;;;24.60;93.30;;;;;;5060496;28;20476;-56
2023/06/24 08:48:40;;;;;;;10.37;7.17;;;24.60;93.20;;;;;;5061644;28;20454;-55
2023/06/24 08:51:09;;;;;;;8.77;6.33;;;24.60;93.10;;;;;;5066539;28;20996;-55
2023/06/24 08:53:38;;;;;;;8.87;6.20;;;24.60;93.10;;;;;;5067791;28;20555;-56
2023/06/24 08:56:07;;;;;;;6.90;6.20;;;24.60;93.10;;;;;;5068118;28;20558;-56
2023/06/24 08:58:34;;;;;;;6.73;6.13;;;24.60;93.20;;;;;;5069920;28;21398;-53
2023/06/24 09:01:02;;;;;;;7.60;6.20;;;24.60;93.30;;;;;;5060831;28;20543;-51
2023/06/24 09:03:28;;;;;;;7.13;6.30;;;24.60;93.30;;;;;;5068629;28;20456;-56
2023/06/24 09:05:55;;;;;;;6.97;6.27;;;24.60;93.20;;;;;;5068302;28;20469;-54
2023/06/24 09:08:22;;;;;;;6.60;5.80;;;24.60;93.10;;;;;;5067880;28;20544;-54
2023/06/24 09:10:55;;;;;;;7.83;6.20;;;24.60;93.10;;;;;;5064719;28;21884;-53
2023/06/24 09:13:34;;;;;;;7.53;6.83;;;24.60;93.00;;;;;;5072394;28;20460;-52
2023/06/24 09:16:01;;;;;;;6.80;6.10;;;24.60;93.10;;;;;;5068945;28;20455;-55
2023/06/24 09:18:32;;;;;;;8.40;5.30;;;24.60;93.10;;;;;;5073947;28;20475;-55
2023/06/24 09:21:02;;;;;;;5.70;5.20;;;24.60;93.10;;;;;;5076932;28;20446;-56
2023/06/24 09:23:28;;;;;;;7.63;6.93;;;24.70;93.20;;;;;;5074605;28;20476;-56
2023/06/24 09:25:58;;;;;;;6.93;6.23;;;24.70;93.30;;;;;;5063053;28;20468;-56
2023/06/24 09:28:28;;;;;;;7.27;6.10;;;24.70;93.30;;;;;;5078032;28;20606;-55
2023/06/24 09:31:09;;;;;;;10.53;6.40;;;24.70;93.30;;;;;;5072854;28;20456;-57
2023/06/24 09:33:36;;;;;;;7.40;5.90;;;24.70;93.40;;;;;;5072146;28;21291;-55
2023/06/24 09:36:04;;;;;;;8.83;5.77;;;24.70;93.40;;;;;;5063484;28;21247;-55
2023/06/24 09:38:35;;;;;;;8.40;6.20;;;24.70;93.40;;;;;;5064507;28;20882;-54
2023/06/24 09:41:04;;;;;;;7.40;6.30;;;24.70;93.60;;;;;;5065087;28;20449;-55
2023/06/24 09:43:35;;;;;;;6.50;5.87;;;24.70;93.60;;;;;;5064267;28;20461;-53
2023/06/24 09:46:02;;;;;;;6.77;6.00;;;24.70;93.70;;;;;;5063213;28;20507;-55
2023/06/24 09:48:29;;;;;;;6.07;5.57;;;24.70;93.60;;;;;;5062893;28;20484;-54
2023/06/24 09:50:59;;;;;;;5.57;4.87;;;24.80;94.10;;;;;;5063183;28;20463;-57
2023/06/24 09:53:27;;;;;;;9.47;6.30;;;24.80;93.70;;;;;;5068073;28;20479;-57
2023/06/24 09:55:54;;;;;;;6.10;5.00;;;24.80;93.80;;;;;;5069891;28;20522;-57
2023/06/24 09:58:22;;;;;;;8.03;6.20;;;24.80;93.80;;;;;;5071613;28;20449;-58
2023/06/24 10:00:51;;;;;;;6.30;5.70;;;24.80;93.90;;;;;;5067697;28;20460;-56
2023/06/24 10:03:18;;;;;;;9.33;6.83;;;24.80;93.90;;;;;;5068017;28;20453;-58
2023/06/24 10:05:45;;;;;;;6.27;5.67;;;24.80;93.90;;;;;;5067007;28;20464;-57
2023/06/24 10:08:14;;;;;;;6.97;6.27;;;24.80;93.90;;;;;;5067933;28;20484;-57
2023/06/24 10:10:41;;;;;;;7.73;6.03;;;24.80;93.90;;;;;;5068546;28;20538;-57
2023/06/24 10:13:08;;;;;;;5.37;4.80;;;24.80;93.90;;;;;;5068451;28;20456;-56
2023/06/24 10:15:36;;;;;;;5.77;5.20;;;24.80;93.90;;;;;;5067056;28;20814;-57
2023/06/24 10:18:30;;;;;;;5.23;4.83;;;24.80;94.00;;;;;;5066100;28;20571;-57
2023/06/24 10:20:58;;;;;;;6.37;5.40;;;24.90;94.00;;;;;;5067035;28;20472;-57
2023/06/24 10:23:31;;;;;;;5.60;5.10;;;24.80;94.00;;;;;;5068237;28;20559;-58
2023/06/24 10:25:57;;;;;;;5.00;4.60;;;24.80;94.00;;;;;;5069025;28;20460;-58
2023/06/24 10:28:24;;;;;;;5.53;5.03;;;24.80;94.00;;;;;;5067792;28;20496;-57
2023/06/24 10:30:56;;;;;;;5.57;5.07;;;24.90;94.00;;;;;;5066684;28;20460;-57
2023/06/24 10:33:24;;;;;;;5.60;5.07;;;24.90;94.00;;;;;;5068079;28;20460;-57
2023/06/24 10:35:52;;;;;;;5.67;5.17;;;24.90;94.10;;;;;;5065529;28;20513;-56
2023/06/24 10:38:19;;;;;;;6.93;5.10;;;24.90;94.00;;;;;;5070469;28;20457;-57
2023/06/24 10:40:48;;;;;;;5.63;5.23;;;24.90;94.10;;;;;;5067973;28;20964;-57
2023/06/24 10:43:29;;;;;;;7.70;4.87;;;24.90;94.10;;;;;;5067265;28;20998;-58
2023/06/24 10:45:57;;;;;;;5.07;4.67;;;24.90;94.20;;;;;;5065173;28;20460;-58
2023/06/24 10:48:25;;;;;;;5.47;4.77;;;24.90;94.20;;;;;;5065819;28;20484;-57
2023/06/24 10:50:52;;;;;;;5.67;5.17;;;24.90;94.20;;;;;;5066756;28;20468;-57
2023/06/24 10:53:19;;;;;;;5.63;5.00;;;24.90;94.20;;;;;;5070428;28;20441;-57
2023/06/24 10:55:46;;;;;;;7.67;5.17;;;24.90;94.20;;;;;;5065559;28;20456;-58
2023/06/24 10:58:15;;;;;;;5.40;5.00;;;24.90;94.20;;;;;;5068405;28;21072;-56
2023/06/24 11:00:43;;;;;;;5.87;5.20;;;24.90;94.20;;;;;;5066979;28;20467;-57
2023/06/24 11:03:11;;;;;;;5.33;4.83;;;24.90;94.20;;;;;;5068498;28;20491;-57
2023/06/24 11:05:41;;;;;;;5.50;5.00;;;24.90;94.20;;;;;;5065601;28;20538;-58
2023/06/24 11:08:08;;;;;;;5.70;5.20;;;24.90;94.20;;;;;;5068721;28;20608;-57
2023/06/24 11:10:42;;;;;;;5.30;4.83;;;24.90;94.20;;;;;;5066982;28;20469;-57
2023/06/24 11:13:08;;;;;;;5.30;4.80;;;24.90;94.20;;;;;;5065813;28;20459;-55
2023/06/24 11:15:35;;;;;;;5.30;4.80;;;24.90;94.10;;;;;;5054481;28;20464;-58
2023/06/24 11:18:04;;;;;;;5.83;4.37;;;24.90;94.10;;;;;;5061360;28;20469;-58
2023/06/24 11:20:30;;;;;;;5.83;5.33;;;24.90;94.10;;;;;;5069281;28;20863;-56
2023/06/24 11:22:58;;;;;;;5.20;4.80;;;24.90;94.10;;;;;;5065888;28;20900;-57
2023/06/24 11:25:25;;;;;;;4.87;4.47;;;24.90;94.10;;;;;;5057679;28;20472;-57
2023/06/24 11:27:53;;;;;;;5.70;5.20;;;24.90;94.10;;;;;;5064391;28;20486;-55
2023/06/24 11:30:19;;;;;;;4.63;4.23;;;25.00;94.10;;;;;;5067226;28;20452;-56
2023/06/24 11:32:47;;;;;;;4.93;4.53;;;24.90;94.00;;;;;;5067241;28;20447;-58
2023/06/24 11:35:15;;;;;;;5.53;5.03;;;25.00;94.10;;;;;;5069744;28;20456;-57
2023/06/24 11:37:43;;;;;;;4.57;4.17;;;24.90;94.00;;;;;;5067100;28;20570;-58
2023/06/24 11:40:12;;;;;;;4.90;4.50;;;25.00;94.00;;;;;;5069202;28;20456;-58
2023/06/24 11:42:40;;;;;;;6.20;4.37;;;25.00;94.00;;;;;;5066960;28;20460;-56
2023/06/24 11:45:09;;;;;;;4.67;4.27;;;24.90;93.90;;;;;;5060944;28;20556;-58
2023/06/24 11:47:36;;;;;;;6.30;4.03;;;25.00;93.90;;;;;;5062216;28;20476;-56
2023/06/24 11:50:05;;;;;;;5.37;4.93;;;25.00;93.90;;;;;;5063463;28;20471;-58
2023/06/24 11:52:41;;;;;;;5.33;4.83;;;25.00;93.90;;;;;;5062369;28;20468;-57
2023/06/24 11:55:18;;;;;;;6.00;5.07;;;25.00;93.80;;;;;;5062645;28;20545;-58
2023/06/24 11:57:50;;;;;;;4.60;4.23;;;25.00;93.80;;;;;;5054735;28;20480;-59
2023/06/24 12:00:17;;;;;;;5.47;5.00;;;25.00;93.80;;;;;;5060274;28;20464;-57
2023/06/24 12:02:43;;;;;;;4.80;4.37;;;25.00;93.80;;;;;;5061468;28;20461;-56
2023/06/24 12:05:10;;;;;;;5.00;3.93;;;25.00;93.80;;;;;;5057455;28;20460;-57
2023/06/24 12:07:37;;;;;;;4.60;4.20;;;25.00;93.70;;;;;;5060387;28;20488;-59
2023/06/24 12:10:05;;;;;;;6.70;4.30;;;25.00;93.60;;;;;;5060645;28;20461;-59
2023/06/24 12:12:33;;;;;;;5.37;4.87;;;25.00;93.50;;;;;;5061516;28;20456;-55
2023/06/24 12:14:59;;;;;;;4.80;4.30;;;25.00;93.30;;;;;;5060326;28;20461;-58
2023/06/24 12:17:26;;;;;;;5.50;5.00;;;25.00;93.20;;;;;;5061325;28;20467;-54
2023/06/24 12:19:53;;;;;;;5.43;5.00;;;25.00;92.80;;;;;;5058943;28;21086;-57
2023/06/24 12:22:20;;;;;;;5.47;4.50;;;25.00;92.70;;;;;;5059334;28;20452;-57
2023/06/24 12:24:46;;;;;;;4.70;4.30;;;25.00;92.40;;;;;;5059686;28;20569;-58
2023/06/24 12:27:13;;;;;;;6.93;4.17;;;25.00;92.20;;;;;;5062410;28;20472;-58
2023/06/24 12:29:41;;;;;;;4.77;4.30;;;25.00;92.00;;;;;;5054907;28;20464;-59
2023/06/24 12:32:08;;;;;;;4.70;4.30;;;25.00;91.90;;;;;;5062022;28;20975;-57
2023/06/24 12:34:35;;;;;;;4.50;4.10;;;25.00;91.80;;;;;;5060785;28;20468;-58
2023/06/24 12:37:02;;;;;;;4.70;4.30;;;24.90;91.60;;;;;;5065558;28;20500;-59
2023/06/24 12:39:28;;;;;;;4.47;4.07;;;25.00;91.60;;;;;;5065812;28;20542;-58
2023/06/24 12:41:55;;;;;;;5.10;4.60;;;24.90;91.50;;;;;;5065068;28;20491;-57
2023/06/24 12:44:22;;;;;;;4.60;4.20;;;24.90;91.50;;;;;;5063482;28;20463;-59
2023/06/24 12:46:50;;;;;;;4.60;4.20;;;24.90;91.50;;;;;;5066309;28;20463;-57
2023/06/24 12:49:16;;;;;;;4.57;4.17;;;25.00;91.50;;;;;;5071821;28;20556;-59
2023/06/24 12:51:43;;;;;;;5.80;4.07;;;25.00;91.50;;;;;;5069460;28;20463;-59